Time;durP1;ratioP1;P1;durP2;ratioP2;P2;SDS_P1;SDS_P2;PMS_P1;PMS_P2;Temp;Humidity;BMP_temperature;BMP_pressure;BME280_temperature;BME280_humidity;BME280_pressure;Samples;Min_cycle;Max_cycle;Signal;HPM_P1;HPM_P2
2022/04/16 00:00:11;;;;;;;11.05;5.20;;;;;;;6.70;80.88;102585.25;6004415;28;20062;-71
2022/04/16 00:03:10;;;;;;;14.15;4.30;;;;;;;6.64;80.72;102585.56;6004656;28;20054;-72
2022/04/16 00:06:05;;;;;;;10.43;4.75;;;;;;;6.59;80.05;102590.22;6004950;28;20066;-71
2022/04/16 00:09:00;;;;;;;12.23;5.40;;;;;;;6.60;79.82;102613.00;6017257;28;20042;-70
2022/04/16 00:11:56;;;;;;;9.63;3.87;;;;;;;6.43;78.72;102605.91;6004009;28;20379;-70
2022/04/16 00:14:51;;;;;;;9.60;4.13;;;;;;;6.39;79.15;102611.38;6004876;28;20394;-71
2022/04/16 00:17:48;;;;;;;12.33;3.97;;;;;;;6.34;79.11;102608.09;6004667;28;20517;-69
2022/04/16 00:20:44;;;;;;;10.68;3.50;;;;;;;6.30;78.94;102596.88;6003911;28;20142;-71
2022/04/16 00:23:41;;;;;;;9.50;3.80;;;;;;;6.33;79.11;102598.50;6003280;28;20035;-70
2022/04/16 00:26:40;;;;;;;12.65;3.78;;;;;;;6.32;79.72;102608.19;6004596;28;20113;-71
2022/04/16 00:29:36;;;;;;;8.05;3.42;;;;;;;6.29;79.22;102607.47;6004178;28;20200;-70
2022/04/16 00:32:32;;;;;;;7.85;3.50;;;;;;;6.29;79.14;102602.19;6003469;28;20435;-71
2022/04/16 00:35:27;;;;;;;8.23;3.40;;;;;;;6.26;79.43;102612.88;6003964;28;20041;-71
2022/04/16 00:38:22;;;;;;;7.73;2.80;;;;;;;6.26;78.84;102605.84;6004721;28;20030;-71
2022/04/16 00:41:18;;;;;;;7.22;2.72;;;;;;;6.17;78.87;102600.16;6002299;28;20026;-71
2022/04/16 00:44:13;;;;;;;11.60;3.47;;;;;;;6.15;79.33;102609.88;6003738;28;20043;-71
2022/04/16 00:47:08;;;;;;;8.20;2.83;;;;;;;6.12;78.51;102612.66;6013097;28;20757;-71
2022/04/16 00:50:05;;;;;;;8.30;3.63;;;;;;;6.12;78.62;102610.03;6001568;28;20053;-70
2022/04/16 00:53:01;;;;;;;9.88;3.67;;;;;;;6.11;79.27;102618.88;6001790;28;20775;-70
2022/04/16 00:55:57;;;;;;;9.15;3.40;;;;;;;6.05;78.91;102620.00;6003445;28;20035;-71
2022/04/16 00:58:52;;;;;;;7.43;3.42;;;;;;;6.06;80.15;102626.13;6004769;28;20140;-70
2022/04/16 01:01:47;;;;;;;8.47;3.20;;;;;;;5.99;80.59;102609.75;5983290;28;20075;-70
2022/04/16 01:04:43;;;;;;;9.67;3.60;;;;;;;5.97;80.31;102617.72;6001184;28;20286;-71
2022/04/16 01:07:56;;;;;;;7.53;3.08;;;;;;;5.93;80.14;102621.41;6001887;28;20031;-70
2022/04/16 01:10:52;;;;;;;12.55;3.55;;;;;;;5.87;79.99;102629.56;6000896;28;20034;-71
2022/04/16 01:13:48;;;;;;;7.43;3.10;;;;;;;5.98;80.15;102635.22;6002281;28;20045;-71
2022/04/16 01:16:43;;;;;;;6.75;3.17;;;;;;;5.94;80.08;102625.75;6003492;28;20041;-70
2022/04/16 01:19:40;;;;;;;9.07;3.20;;;;;;;5.90;79.60;102634.72;6003377;28;20058;-70
2022/04/16 01:22:36;;;;;;;7.63;3.13;;;;;;;5.81;79.61;102648.28;6001996;28;20042;-70
2022/04/16 01:25:33;;;;;;;8.20;3.63;;;;;;;5.84;79.84;102647.28;6002977;28;20027;-70
2022/04/16 01:28:28;;;;;;;7.57;2.97;;;;;;;5.71;79.92;102646.09;6002799;28;20549;-71
2022/04/16 01:31:24;;;;;;;6.07;2.30;;;;;;;5.60;80.18;102659.72;6001846;28;20046;-70
2022/04/16 01:34:20;;;;;;;6.50;2.83;;;;;;;5.49;79.67;102654.06;6003309;28;20034;-70
2022/04/16 01:37:15;;;;;;;6.55;2.58;;;;;;;5.59;78.81;102672.94;6002726;28;20026;-71
2022/04/16 01:40:14;;;;;;;6.78;3.13;;;;;;;5.52;79.78;102667.09;6002405;28;20042;-71
2022/04/16 01:43:10;;;;;;;6.40;2.35;;;;;;;5.43;79.77;102668.31;6002235;28;20042;-70
2022/04/16 01:46:06;;;;;;;5.40;2.33;;;;;;;5.37;80.42;102665.13;6009004;28;20073;-70
2022/04/16 01:49:01;;;;;;;9.82;2.55;;;;;;;5.35;81.35;102680.13;6000338;28;20058;-71
2022/04/16 01:51:58;;;;;;;5.63;1.88;;;;;;;5.06;80.22;102676.03;5998744;28;20066;-70
2022/04/16 01:54:54;;;;;;;5.40;1.95;;;;;;;4.85;80.88;102686.56;6001578;28;20027;-71
2022/04/16 01:57:49;;;;;;;8.67;2.43;;;;;;;4.67;80.33;102696.88;6000703;28;20046;-69
2022/04/16 02:00:44;;;;;;;7.23;2.57;;;;;;;4.48;81.39;102680.13;6001081;28;20041;-71
2022/04/16 02:03:40;;;;;;;5.97;2.60;;;;;;;4.41;81.49;102683.88;5999447;28;20459;-70
2022/04/16 02:06:35;;;;;;;6.90;2.57;;;;;;;4.17;82.25;102669.91;6002682;28;20034;-71
2022/04/16 02:09:30;;;;;;;6.00;2.50;;;;;;;4.18;82.97;102682.13;6002672;28;20053;-71
2022/04/16 02:12:26;;;;;;;3.93;1.87;;;;;;;3.99;82.68;102683.72;6001142;28;20035;-71
2022/04/16 02:15:21;;;;;;;6.75;2.80;;;;;;;4.08;82.65;102690.38;6002673;28;20745;-69
2022/04/16 02:18:16;;;;;;;6.20;2.33;;;;;;;3.86;82.46;102682.44;6001782;28;20043;-71
2022/04/16 02:21:12;;;;;;;7.07;2.20;;;;;;;3.88;83.27;102683.25;6001381;28;20290;-70
2022/04/16 02:24:07;;;;;;;8.90;2.70;;;;;;;3.68;83.76;102675.22;6002050;28;20270;-71
2022/04/16 02:27:03;;;;;;;6.28;2.30;;;;;;;3.65;82.43;102690.19;6001793;28;20035;-69
2022/04/16 02:29:58;;;;;;;5.30;1.73;;;;;;;3.57;83.10;102696.56;6001414;28;20031;-70
2022/04/16 02:32:53;;;;;;;3.60;2.00;;;;;;;3.46;83.01;102711.81;6001662;28;20417;-70
2022/04/16 02:35:49;;;;;;;8.30;2.40;;;;;;;3.40;83.80;102713.78;6004731;28;20030;-71
2022/04/16 02:38:44;;;;;;;7.53;2.30;;;;;;;3.26;83.18;102714.22;6006972;28;20038;-70
2022/04/16 02:41:39;;;;;;;4.87;2.30;;;;;;;3.26;83.26;102718.66;6006286;28;20289;-70
2022/04/16 02:47:49;;;;;;;5.30;2.20;;;;;;;3.14;83.49;102730.38;6012812;28;20034;-70
2022/04/16 02:50:44;;;;;;;6.68;2.13;;;;;;;3.08;84.59;102727.94;6013912;28;20106;-71
2022/04/16 02:53:39;;;;;;;4.75;2.30;;;;;;;2.89;84.84;102722.44;6006433;28;20142;-71
2022/04/16 02:56:35;;;;;;;8.23;2.43;;;;;;;2.89;84.58;102734.66;6006700;28;20039;-69
2022/04/16 02:59:32;;;;;;;5.23;2.13;;;;;;;2.89;84.21;102734.66;6006934;28;20434;-69
2022/04/16 03:02:28;;;;;;;4.70;2.03;;;;;;;2.74;85.04;102743.00;6005181;28;20074;-72
2022/04/16 03:05:23;;;;;;;3.30;1.80;;;;;;;2.90;85.33;102752.09;6004531;28;20093;-70
2022/04/16 03:08:18;;;;;;;6.30;1.60;;;;;;;2.78;85.19;102757.69;6004026;28;20032;-70
2022/04/16 03:11:14;;;;;;;5.37;2.40;;;;;;;2.73;85.46;102754.38;6005203;28;20038;-69
2022/04/16 03:17:31;;;;;;;5.57;2.40;;;;;;;2.70;85.44;102762.31;6006239;28;20121;-69
2022/04/16 03:20:29;;;;;;;5.45;2.13;;;;;;;2.66;86.44;102776.41;6005337;28;20074;-70
2022/04/16 03:23:25;;;;;;;3.92;1.95;;;;;;;2.54;85.60;102768.91;6006118;28;20038;-71
2022/04/16 03:26:20;;;;;;;6.80;2.40;;;;;;;2.55;86.37;102778.50;6007224;28;20090;-71
2022/04/16 03:29:16;;;;;;;6.93;1.92;;;;;;;2.39;86.26;102773.66;6005748;28;20026;-70
2022/04/16 03:32:11;;;;;;;6.07;1.90;;;;;;;2.33;85.98;102766.00;6003788;28;20070;-71
2022/04/16 03:35:07;;;;;;;5.77;1.90;;;;;;;2.24;86.49;102781.97;6004033;28;20035;-70
2022/04/16 03:38:03;;;;;;;8.05;2.40;;;;;;;2.36;86.94;102771.13;6001891;28;20023;-71
2022/04/16 03:40:58;;;;;;;5.15;1.85;;;;;;;2.31;86.88;102780.88;6000199;28;20398;-71
2022/04/16 03:43:54;;;;;;;9.00;2.30;;;;;;;2.05;86.81;102772.88;6002663;28;20030;-71
2022/04/16 03:46:49;;;;;;;6.27;2.10;;;;;;;2.14;87.65;102772.66;6002171;28;20118;-70
2022/04/16 03:49:44;;;;;;;3.80;1.83;;;;;;;2.08;87.12;102774.56;6003709;28;20015;-70
2022/04/16 03:52:41;;;;;;;5.27;1.90;;;;;;;2.09;87.13;102779.75;6002823;28;20034;-70
2022/04/16 04:02:04;;;;;;;5.53;2.50;;;;;;;1.98;87.11;102789.66;6002788;28;20031;-70
2022/04/16 04:05:00;;;;;;;3.53;1.90;;;;;;;2.03;87.45;102795.63;6000697;28;20031;-70
2022/04/16 04:07:55;;;;;;;5.60;2.25;;;;;;;1.91;88.05;102800.28;6003325;28;20478;-71
2022/04/16 04:10:50;;;;;;;7.37;2.40;;;;;;;1.89;88.22;102809.94;6000220;28;20042;-70
2022/04/16 04:13:47;;;;;;;3.90;2.17;;;;;;;1.86;88.56;102800.44;6002069;28;20483;-71
2022/04/16 04:16:42;;;;;;;5.35;2.25;;;;;;;1.78;87.95;102787.56;6002710;28;20049;-70
2022/04/16 04:19:40;;;;;;;8.53;2.63;;;;;;;1.88;88.89;102793.38;6000204;28;20398;-71
2022/04/16 04:22:35;;;;;;;6.88;2.20;;;;;;;1.87;88.14;102796.94;6001436;28;20039;-72
2022/04/16 04:25:30;;;;;;;5.03;1.97;;;;;;;1.98;88.42;102807.97;6003136;28;20545;-72
2022/04/16 04:28:25;;;;;;;4.70;1.93;;;;;;;1.88;88.70;102810.84;5986024;28;20031;-71
2022/04/16 04:31:21;;;;;;;5.77;2.47;;;;;;;1.92;88.64;102805.50;6000824;28;20097;-71
2022/04/16 04:34:16;;;;;;;5.15;2.53;;;;;;;2.03;88.88;102808.72;5999939;28;20158;-71
2022/04/16 04:37:11;;;;;;;6.17;1.90;;;;;;;1.83;87.98;102810.97;6002849;28;20094;-71
2022/04/16 04:40:07;;;;;;;5.17;2.13;;;;;;;1.79;88.60;102809.34;6002077;28;20364;-71
2022/04/16 04:43:02;;;;;;;8.73;2.17;;;;;;;1.70;88.67;102810.44;6003358;28;20035;-71
2022/04/16 04:45:58;;;;;;;6.13;2.30;;;;;;;1.70;89.38;102807.81;6002924;28;20097;-72
2022/04/16 04:48:53;;;;;;;7.60;2.23;;;;;;;1.84;89.73;102804.84;6002588;28;20274;-70
2022/04/16 04:51:48;;;;;;;6.57;2.43;;;;;;;1.88;88.92;102809.09;5999231;28;20035;-71
2022/04/16 04:54:44;;;;;;;7.65;1.90;;;;;;;2.00;89.07;102821.88;6002320;28;20493;-70
2022/04/16 04:57:40;;;;;;;6.80;1.80;;;;;;;2.17;89.07;102824.91;6003108;28;20039;-72
2022/04/16 05:00:36;;;;;;;5.50;1.95;;;;;;;1.92;88.66;102829.06;6000861;28;20462;-70
2022/04/16 05:03:31;;;;;;;4.37;2.10;;;;;;;2.08;88.35;102826.91;6001062;28;20035;-71
2022/04/16 05:06:27;;;;;;;5.78;2.55;;;;;;;2.02;88.14;102837.50;6002315;28;20038;-71
2022/04/16 05:09:22;;;;;;;4.75;2.22;;;;;;;2.00;88.45;102834.09;6001998;28;20066;-71
2022/04/16 05:12:19;;;;;;;5.63;2.27;;;;;;;1.90;88.37;102845.69;6002010;28;20467;-71
2022/04/16 05:15:15;;;;;;;4.75;2.00;;;;;;;2.08;88.90;102846.06;6001149;28;20266;-72
2022/04/16 05:18:10;;;;;;;5.93;2.47;;;;;;;1.76;88.04;102851.25;5999252;28;20039;-70
2022/04/16 05:21:06;;;;;;;6.60;2.70;;;;;;;1.83;88.55;102857.16;6001193;28;20042;-72
2022/04/16 05:24:01;;;;;;;5.30;2.50;;;;;;;2.03;89.14;102858.41;6001567;28;20069;-71
2022/04/16 05:26:57;;;;;;;9.52;2.45;;;;;;;2.06;88.94;102863.56;6002570;28;20489;-71
2022/04/16 05:30:06;;;;;;;5.07;2.85;;;;;;;2.57;87.04;102865.69;6002563;28;20038;-71
2022/04/16 05:33:05;;;;;;;4.95;2.30;;;;;;;3.44;85.98;102870.97;6002156;28;20474;-72
2022/04/16 05:36:00;;;;;;;4.55;2.22;;;;;;;3.18;83.88;102878.75;6002611;28;20077;-71
2022/04/16 05:38:56;;;;;;;6.70;3.05;;;;;;;3.02;83.40;102876.66;6003543;28;20038;-71
2022/04/16 05:41:51;;;;;;;9.03;3.17;;;;;;;3.78;81.96;102877.78;5999476;28;20482;-71
2022/04/16 05:44:46;;;;;;;5.37;2.40;;;;;;;4.01;80.31;102877.88;6001940;28;20277;-71
2022/04/16 05:47:43;;;;;;;7.00;2.70;;;;;;;4.51;79.61;102884.88;5985582;28;20497;-71
2022/04/16 05:50:39;;;;;;;4.88;2.13;;;;;;;4.48;77.27;102885.03;6001443;28;20031;-71
2022/04/16 05:53:34;;;;;;;5.80;2.35;;;;;;;5.22;76.42;102903.28;6001760;28;20094;-71
2022/04/16 05:56:30;;;;;;;4.30;1.90;;;;;;;5.15;74.80;102904.44;6001940;28;20050;-71
2022/04/16 05:59:25;;;;;;;5.03;2.00;;;;;;;5.01;75.34;102914.63;6002316;28;20282;-71
2022/04/16 06:02:21;;;;;;;3.40;1.50;;;;;;;5.39;74.92;102914.03;6001926;28;20081;-70
2022/04/16 06:05:16;;;;;;;5.70;1.83;;;;;;;5.21;75.70;102913.88;6002507;28;20054;-71
2022/04/16 06:08:11;;;;;;;5.93;1.80;;;;;;;5.46;73.17;102909.41;6002230;28;20117;-71
2022/04/16 06:11:07;;;;;;;5.77;1.90;;;;;;;4.89;74.49;102925.59;6001440;28;20277;-71
2022/04/16 06:14:02;;;;;;;5.13;1.48;;;;;;;5.29;74.15;102924.97;6001969;28;20038;-71
2022/04/16 06:16:58;;;;;;;4.30;1.80;;;;;;;5.33;72.84;102924.78;6002774;28;20070;-71
2022/04/16 06:19:53;;;;;;;5.05;1.77;;;;;;;5.36;74.50;102923.81;6000671;28;20027;-71
2022/04/16 06:22:49;;;;;;;4.03;1.70;;;;;;;5.09;73.55;102919.59;6001422;28;20034;-71
2022/04/16 06:25:44;;;;;;;4.07;1.23;;;;;;;5.51;72.80;102923.25;6003693;28;20031;-71
2022/04/16 06:28:39;;;;;;;4.27;1.70;;;;;;;5.29;73.14;102917.09;6002019;28;20278;-71
2022/04/16 06:31:34;;;;;;;3.20;1.47;;;;;;;5.33;73.22;102908.16;6001885;28;20030;-70
2022/04/16 06:34:30;;;;;;;2.60;1.20;;;;;;;5.56;71.98;102916.03;6001894;28;20437;-70
2022/04/16 06:37:25;;;;;;;3.30;1.43;;;;;;;5.09;73.82;102914.31;6002863;28;20031;-71
2022/04/16 06:40:21;;;;;;;5.93;1.63;;;;;;;5.62;71.81;102923.69;6000964;28;20046;-71
2022/04/16 06:43:16;;;;;;;3.75;1.40;;;;;;;5.36;73.22;102923.81;5999772;28;20122;-71
2022/04/16 06:46:12;;;;;;;6.67;1.60;;;;;;;5.60;71.75;102932.56;6006906;28;20085;-70
2022/04/16 06:49:08;;;;;;;3.88;1.27;;;;;;;5.32;72.52;102922.22;6002097;28;20031;-71
2022/04/16 06:52:04;;;;;;;3.60;1.38;;;;;;;5.37;71.89;102923.78;6001878;28;20075;-71
2022/04/16 06:54:59;;;;;;;2.58;1.00;;;;;;;5.95;70.96;102917.09;6001310;28;20034;-71
2022/04/16 06:57:55;;;;;;;3.10;1.30;;;;;;;5.68;70.30;102915.53;6001526;28;20427;-71
2022/04/16 07:00:50;;;;;;;2.03;1.10;;;;;;;5.76;70.22;102913.44;6001136;28;20483;-71
2022/04/16 07:03:45;;;;;;;4.07;1.30;;;;;;;5.83;70.04;102925.47;6001373;28;20038;-70
2022/04/16 07:06:42;;;;;;;2.70;1.17;;;;;;;5.65;71.08;102915.69;6002169;28;20031;-71
2022/04/16 07:09:38;;;;;;;2.08;1.05;;;;;;;5.77;70.13;102909.03;6001256;28;20470;-71
2022/04/16 07:12:34;;;;;;;2.33;1.10;;;;;;;6.12;69.35;102921.66;5999080;28;20173;-71
2022/04/16 07:15:29;;;;;;;3.70;1.40;;;;;;;5.78;69.76;102914.25;5995755;28;20097;-70
2022/04/16 07:18:25;;;;;;;3.53;1.10;;;;;;;5.88;70.45;102922.66;6002454;28;20073;-71
2022/04/16 07:21:20;;;;;;;1.88;1.02;;;;;;;6.13;69.40;102918.13;6000966;28;20039;-71
2022/04/16 07:24:16;;;;;;;3.07;1.30;;;;;;;6.20;68.41;102929.25;6005794;28;20196;-71
2022/04/16 07:27:11;;;;;;;4.50;1.10;;;;;;;6.37;67.87;102922.38;6005562;28;20043;-71
2022/04/16 07:30:06;;;;;;;2.50;1.23;;;;;;;6.36;68.63;102918.00;6005197;28;20100;-71
2022/04/16 07:33:01;;;;;;;2.28;1.10;;;;;;;6.43;66.88;102919.47;6005527;28;20041;-71
2022/04/16 07:35:57;;;;;;;4.33;1.30;;;;;;;6.42;66.82;102909.00;6005447;28;20027;-70
2022/04/16 07:38:52;;;;;;;2.53;1.00;;;;;;;6.19;67.74;102917.03;6005592;28;20104;-72
2022/04/16 07:41:51;;;;;;;5.10;1.30;;;;;;;6.50;67.01;102918.28;6004067;28;20121;-70
2022/04/16 07:44:46;;;;;;;1.20;0.82;;;;;;;6.32;67.75;102924.34;6010646;28;20466;-72
2022/04/16 07:47:41;;;;;;;2.57;1.20;;;;;;;6.39;66.51;102920.53;6005457;28;20046;-71
2022/04/16 07:50:36;;;;;;;3.27;1.10;;;;;;;6.20;67.49;102927.47;6004586;28;20035;-70
2022/04/16 07:53:34;;;;;;;6.23;1.10;;;;;;;7.00;66.97;102921.34;6001880;28;20069;-71
2022/04/16 07:56:29;;;;;;;2.78;1.58;;;;;;;6.80;65.96;102929.28;5996444;28;20414;-71
2022/04/16 07:59:24;;;;;;;2.97;1.13;;;;;;;6.70;65.05;102935.88;6000532;28;20042;-71
2022/04/16 08:02:20;;;;;;;2.63;1.20;;;;;;;6.67;65.75;102930.75;5999631;28;20058;-72
2022/04/16 08:05:16;;;;;;;2.17;1.10;;;;;;;6.82;66.05;102943.25;5998868;28;20027;-70
2022/04/16 08:08:11;;;;;;;3.40;0.98;;;;;;;7.46;65.59;102945.63;5999114;28;20049;-72
2022/04/16 08:11:06;;;;;;;2.53;0.87;;;;;;;7.61;60.63;102952.84;6001947;28;20042;-71
2022/04/16 08:14:02;;;;;;;1.60;0.60;;;;;;;7.50;60.82;102944.59;6000736;28;20402;-71
2022/04/16 08:16:57;;;;;;;1.10;0.65;;;;;;;7.64;61.12;102935.06;6001453;28;20066;-71
2022/04/16 08:19:52;;;;;;;4.78;0.90;;;;;;;7.55;59.95;102932.00;6003026;28;20073;-71
2022/04/16 08:22:48;;;;;;;3.83;0.97;;;;;;;7.56;60.60;102933.72;6002280;28;20039;-72
2022/04/16 08:25:43;;;;;;;2.38;0.93;;;;;;;7.86;60.62;102948.09;6002886;28;20118;-72
2022/04/16 08:28:39;;;;;;;2.13;0.90;;;;;;;7.86;59.46;102937.53;6003276;28;20513;-70
2022/04/16 08:31:34;;;;;;;1.33;0.60;;;;;;;7.80;60.35;102941.31;6002661;28;20266;-71
2022/04/16 08:34:29;;;;;;;2.73;0.90;;;;;;;7.81;59.52;102950.13;6003101;28;20169;-71
2022/04/16 08:37:25;;;;;;;2.90;0.93;;;;;;;7.78;60.05;102947.63;6003940;28;20479;-70
2022/04/16 08:40:20;;;;;;;3.20;0.90;;;;;;;7.85;60.14;102949.06;6003722;28;20065;-71
2022/04/16 08:43:15;;;;;;;0.90;0.60;;;;;;;7.68;59.76;102938.44;6001968;28;20259;-71
2022/04/16 08:46:11;;;;;;;4.10;0.87;;;;;;;8.19;59.19;102943.81;6012998;28;20042;-72
2022/04/16 08:49:07;;;;;;;1.70;1.02;;;;;;;8.08;57.54;102954.06;6004213;28;20486;-71
2022/04/16 08:52:03;;;;;;;2.75;0.70;;;;;;;8.45;56.84;102947.00;6002550;28;20127;-71
2022/04/16 08:54:58;;;;;;;2.42;0.80;;;;;;;8.13;57.59;102945.91;6003164;28;20034;-72
2022/04/16 08:57:55;;;;;;;1.92;0.82;;;;;;;8.37;56.50;102940.28;6003290;28;20043;-72
2022/04/16 09:00:50;;;;;;;2.17;0.85;;;;;;;8.41;56.64;102945.44;6003276;28;20497;-71
2022/04/16 09:03:48;;;;;;;1.40;0.60;;;;;;;8.46;56.75;102953.97;6003950;28;20035;-71
2022/04/16 09:06:54;;;;;;;2.40;1.00;;;;;;;8.83;55.39;102959.13;6003779;28;20483;-71
2022/04/16 09:09:50;;;;;;;1.40;0.73;;;;;;;8.80;55.84;102959.28;6003203;28;20035;-70
2022/04/16 09:12:49;;;;;;;4.15;0.80;;;;;;;9.14;53.72;102947.75;6003274;28;20045;-71
2022/04/16 09:15:45;;;;;;;4.53;0.93;;;;;;;9.12;52.49;102953.16;6002957;28;20118;-72
2022/04/16 09:18:50;;;;;;;2.83;0.70;;;;;;;9.13;53.07;102957.47;6002920;28;20101;-72
2022/04/16 09:21:45;;;;;;;2.28;0.80;;;;;;;9.25;52.42;102955.97;5999790;28;20038;-71
2022/04/16 09:24:47;;;;;;;2.22;0.63;;;;;;;9.37;53.20;102966.78;6002564;28;20367;-72
2022/04/16 09:27:46;;;;;;;2.00;1.17;;;;;;;9.45;52.76;102969.88;6001806;28;20109;-71
2022/04/16 09:30:52;;;;;;;2.03;0.90;;;;;;;9.50;53.94;102962.53;6002266;28;20027;-75
2022/04/16 09:33:47;;;;;;;5.75;1.08;;;;;;;9.77;52.98;102953.97;6000114;28;20042;-75
2022/04/16 09:36:44;;;;;;;1.93;0.80;;;;;;;9.40;52.83;102961.28;5999188;28;20023;-76
2022/04/16 09:39:40;;;;;;;3.20;0.88;;;;;;;9.75;52.52;102955.88;6001698;28;20622;-75
2022/04/16 09:42:35;;;;;;;1.92;0.80;;;;;;;10.00;51.34;102956.22;5998214;28;20066;-75
2022/04/16 09:45:31;;;;;;;2.70;0.97;;;;;;;9.84;52.71;102953.53;6014119;28;20042;-75
2022/04/16 09:48:26;;;;;;;1.55;0.93;;;;;;;9.61;52.68;102943.41;6003375;28;20046;-75
2022/04/16 09:51:23;;;;;;;2.47;0.90;;;;;;;9.56;53.14;102941.00;6001280;28;20034;-75
2022/04/16 09:54:21;;;;;;;4.88;0.85;;;;;;;10.02;51.11;102952.53;5985012;28;20047;-75
2022/04/16 09:57:21;;;;;;;1.38;0.68;;;;;;;9.87;49.95;102944.56;6001604;28;20517;-75
2022/04/16 10:00:17;;;;;;;2.08;0.70;;;;;;;9.81;49.63;102952.88;5984512;28;20038;-74
2022/04/16 10:03:13;;;;;;;2.53;0.90;;;;;;;9.68;50.33;102951.84;5985326;28;20546;-75
2022/04/16 10:06:08;;;;;;;1.80;0.70;;;;;;;9.85;50.74;102943.81;5969465;28;20035;-75
2022/04/16 10:09:13;;;;;;;2.30;1.20;;;;;;;9.86;50.24;102937.59;5984556;28;20035;-75
2022/04/16 10:15:18;;;;;;;0.90;0.60;;;;;;;10.16;46.79;102941.16;6000881;28;20460;-75
2022/04/16 10:18:14;;;;;;;2.08;0.60;;;;;;;10.61;44.11;102938.47;5992743;28;20042;-75
2022/04/16 10:21:16;;;;;;;1.13;0.60;;;;;;;10.90;42.78;102933.22;6001225;28;20038;-74
2022/04/16 10:24:12;;;;;;;1.75;0.50;;;;;;;10.81;43.37;102925.78;5985050;28;20034;-74
2022/04/16 10:27:08;;;;;;;2.03;0.77;;;;;;;10.50;44.41;102932.94;5985061;28;20402;-74
2022/04/16 10:30:09;;;;;;;1.23;0.60;;;;;;;10.46;43.24;102931.38;5983225;28;20106;-75
2022/04/16 10:33:19;;;;;;;1.38;0.40;;;;;;;10.78;42.77;102929.47;6001484;28;20031;-75
2022/04/16 10:36:24;;;;;;;4.55;0.90;;;;;;;10.56;43.67;102934.38;6001963;28;20034;-74
2022/04/16 10:39:24;;;;;;;8.38;6.47;;;;;;;11.02;43.49;102943.06;6002432;28;20130;-74
2022/04/16 10:42:31;;;;;;;1.92;0.95;;;;;;;10.89;42.49;102942.97;6001391;28;20092;-75
2022/04/16 10:45:26;;;;;;;5.30;2.08;;;;;;;11.04;42.58;102934.03;5990247;28;20035;-75
2022/04/16 10:48:21;;;;;;;6.73;3.03;;;;;;;10.95;41.51;102926.63;6002385;28;20062;-74
2022/04/16 10:51:20;;;;;;;4.53;2.10;;;;;;;11.13;42.05;102929.97;6000996;28;20293;-75
2022/04/16 10:54:27;;;;;;;2.22;0.70;;;;;;;11.10;42.69;102928.38;6001840;28;20043;-75
2022/04/16 10:57:23;;;;;;;5.18;3.60;;;;;;;11.34;42.49;102934.81;5998520;28;20121;-75
2022/04/16 11:00:18;;;;;;;0.87;0.60;;;;;;;11.54;40.48;102914.94;5987062;28;20041;-74
2022/04/16 11:03:18;;;;;;;1.73;0.90;;;;;;;11.52;41.03;102911.53;5988020;28;20285;-75
2022/04/16 11:06:15;;;;;;;4.05;0.80;;;;;;;11.45;40.30;102914.66;6006141;28;20053;-74
2022/04/16 11:09:12;;;;;;;1.45;0.57;;;;;;;11.39;39.32;102917.72;6006621;28;20061;-74
2022/04/16 11:12:09;;;;;;;2.47;1.45;;;;;;;11.52;40.73;102911.53;6004531;28;20162;-75
2022/04/16 11:15:24;;;;;;;1.95;1.20;;;;;;;11.66;37.73;102916.78;5989153;28;20039;-75
2022/04/16 11:18:20;;;;;;;1.52;1.00;;;;;;;11.88;38.04;102916.28;6005755;28;20037;-75
2022/04/16 11:21:18;;;;;;;2.70;0.73;;;;;;;11.76;37.98;102917.97;6005538;28;20027;-75
2022/04/16 11:24:15;;;;;;;3.22;0.80;;;;;;;11.56;38.23;102907.72;6005824;28;20298;-74
2022/04/16 11:37:13;;;;;;;2.78;0.70;;;;;;;11.79;36.19;102920.44;6005533;28;20038;-74
2022/04/16 11:40:09;;;;;;;1.45;0.82;;;;;;;11.91;37.02;102914.28;6005732;28;20447;-74
2022/04/16 11:43:06;;;;;;;1.83;0.57;;;;;;;12.04;38.08;102911.66;6005501;28;20031;-75
2022/04/16 11:46:02;;;;;;;1.77;1.00;;;;;;;11.91;38.04;102908.97;6001488;28;20467;-74
2022/04/16 11:49:00;;;;;;;2.53;1.60;;;;;;;11.70;36.50;102914.84;6005467;28;20034;-74
2022/04/16 11:51:56;;;;;;;2.20;0.77;;;;;;;12.03;37.04;102911.78;6004431;28;20398;-75
2022/04/16 11:55:05;;;;;;;0.75;0.63;;;;;;;12.22;37.55;102890.97;6020712;28;20121;-75
2022/04/16 11:58:00;;;;;;;1.38;0.45;;;;;;;12.29;37.27;102898.44;6004909;28;20026;-75
2022/04/16 12:00:56;;;;;;;1.67;1.10;;;;;;;12.18;38.53;102894.78;6005040;28;20042;-74
2022/04/16 12:03:57;;;;;;;1.90;0.95;;;;;;;12.09;38.43;102890.09;6004959;28;20031;-75
2022/04/16 12:06:53;;;;;;;3.38;2.53;;;;;;;12.34;38.10;102891.00;6004794;28;20030;-75
2022/04/16 12:09:49;;;;;;;1.63;0.80;;;;;;;12.74;35.45;102890.94;6004614;28;20039;-75
2022/04/16 12:12:49;;;;;;;2.67;0.70;;;;;;;12.44;36.38;102886.78;6004108;28;20121;-75
2022/04/16 12:15:45;;;;;;;1.52;0.73;;;;;;;12.62;36.84;102889.97;5987582;28;20088;-75
2022/04/16 12:18:42;;;;;;;0.73;0.60;;;;;;;12.60;36.54;102886.56;6005103;28;20034;-75
2022/04/16 12:21:42;;;;;;;8.20;0.90;;;;;;;12.46;35.14;102873.34;6003808;28;20471;-75
2022/04/16 12:24:37;;;;;;;1.80;0.85;;;;;;;12.63;35.56;102880.19;6004970;28;20117;-74
2022/04/16 12:27:32;;;;;;;3.97;1.10;;;;;;;13.01;34.20;102881.88;6004898;28;20360;-75
2022/04/16 12:30:32;;;;;;;1.17;0.63;;;;;;;13.06;35.20;102873.56;6003744;28;20038;-75
2022/04/16 12:33:27;;;;;;;1.40;0.60;;;;;;;13.07;33.19;102869.97;6004766;28;20084;-75
2022/04/16 12:36:23;;;;;;;2.50;0.73;;;;;;;13.33;34.50;102870.75;6004520;28;20467;-75
2022/04/16 12:39:18;;;;;;;1.33;0.77;;;;;;;12.83;34.59;102868.97;6004222;28;20479;-74
2022/04/16 12:42:13;;;;;;;1.07;0.70;;;;;;;12.55;36.22;102864.75;6003612;28;20118;-75
2022/04/16 12:45:09;;;;;;;1.40;0.70;;;;;;;12.65;34.89;102854.28;5986849;28;20765;-74
2022/04/16 12:48:05;;;;;;;1.83;0.57;;;;;;;12.46;34.60;102854.72;6004002;28;20494;-75
2022/04/16 12:51:01;;;;;;;1.08;0.60;;;;;;;12.67;34.84;102850.56;6003039;28;20114;-75
2022/04/16 12:53:56;;;;;;;2.28;0.90;;;;;;;12.82;34.48;102853.97;5987109;28;20023;-75
2022/04/16 12:56:51;;;;;;;1.73;1.00;;;;;;;12.66;35.90;102856.00;6004056;28;20035;-75
2022/04/16 12:59:47;;;;;;;2.33;1.00;;;;;;;12.94;35.37;102847.78;6004253;28;20286;-75
2022/04/16 13:02:43;;;;;;;1.93;0.80;;;;;;;12.95;34.24;102849.47;6002131;28;20642;-75
2022/04/16 13:05:39;;;;;;;0.93;0.70;;;;;;;12.95;33.43;102846.81;6003988;28;20027;-74
2022/04/16 13:08:34;;;;;;;2.53;1.45;;;;;;;12.84;34.93;102850.25;6004060;28;20379;-75
2022/04/16 13:11:29;;;;;;;1.27;0.80;;;;;;;13.39;33.93;102843.66;6002939;28;20061;-71
2022/04/16 13:14:25;;;;;;;1.57;0.73;;;;;;;13.35;32.48;102843.03;5985647;28;20038;-71
2022/04/16 13:17:20;;;;;;;1.60;0.60;;;;;;;13.34;32.28;102838.69;6007620;28;20030;-70
2022/04/16 13:20:16;;;;;;;1.40;0.60;;;;;;;13.31;32.18;102841.56;6000255;28;20274;-71
2022/04/16 13:23:11;;;;;;;1.53;0.80;;;;;;;13.04;33.35;102838.19;5998551;28;20038;-71
2022/04/16 13:26:06;;;;;;;1.03;0.70;;;;;;;13.08;34.53;102837.88;5991152;28;20039;-70
2022/04/16 13:29:02;;;;;;;2.45;0.43;;;;;;;13.19;35.23;102831.78;6001160;28;20579;-71
2022/04/16 13:31:57;;;;;;;1.27;0.70;;;;;;;13.24;35.64;102832.28;6001094;28;20026;-71
2022/04/16 13:34:52;;;;;;;2.63;1.37;;;;;;;13.48;34.69;102821.66;6002824;28;20031;-71
2022/04/16 13:37:48;;;;;;;1.40;0.73;;;;;;;13.30;34.27;102820.34;6003197;28;20053;-71
2022/04/16 13:43:56;;;;;;;1.13;0.70;;;;;;;13.73;34.26;102816.19;6002487;28;20392;-72
2022/04/16 13:46:53;;;;;;;2.83;0.83;;;;;;;13.92;34.15;102818.31;6016355;28;20043;-71
2022/04/16 13:49:48;;;;;;;1.35;0.77;;;;;;;13.79;33.39;102818.41;6004933;28;20049;-71
2022/04/16 13:52:45;;;;;;;2.30;0.98;;;;;;;13.55;34.53;102821.09;6003642;28;20434;-71
2022/04/16 13:55:41;;;;;;;7.57;3.08;;;;;;;13.71;34.04;102823.47;6009398;28;20026;-70
2022/04/16 13:58:36;;;;;;;2.35;0.90;;;;;;;13.84;33.21;102818.06;6002077;28;20115;-72
2022/04/16 14:01:33;;;;;;;0.80;0.70;;;;;;;13.83;33.44;102816.38;6001468;28;20513;-72
2022/04/16 14:05:42;;;;;;;1.58;0.70;;;;;;;14.05;32.56;102827.94;6002842;28;20031;-71
2022/04/16 14:07:44;;;;;;;1.98;0.90;;;;;;;14.03;32.47;102805.88;6000683;28;20497;-72
2022/04/16 14:10:43;;;;;;;3.28;0.80;;;;;;;14.09;33.32;102813.44;6001472;28;20038;-72
2022/04/16 14:13:39;;;;;;;2.08;1.15;;;;;;;14.17;33.19;102800.34;6001374;28;20042;-71
2022/04/16 14:16:34;;;;;;;2.60;0.88;;;;;;;14.14;33.16;102811.25;6000061;28;20102;-71